sensor_id;sensor_type;location;lat;lon;timestamp;temperature;humidity
21417;DHT22;10869;52.238;10.716;2023-05-10T05:44:17;12.80;98.30
21417;DHT22;10869;52.238;10.716;2023-05-10T05:46:43;12.80;98.40
21417;DHT22;10869;52.238;10.716;2023-05-10T05:51:46;12.90;98.60
21417;DHT22;10869;52.238;10.716;2023-05-10T05:57:18;13.00;98.70
21417;DHT22;10869;52.238;10.716;2023-05-10T05:59:44;13.20;98.90
21417;DHT22;10869;52.238;10.716;2023-05-10T06:02:11;13.30;98.90
21417;DHT22;10869;52.238;10.716;2023-05-10T06:04:43;13.40;98.90
21417;DHT22;10869;52.238;10.716;2023-05-10T06:07:11;13.40;99.10
21417;DHT22;10869;52.238;10.716;2023-05-10T06:09:37;13.60;99.20
21417;DHT22;10869;52.238;10.716;2023-05-10T06:12:03;13.60;99.20
21417;DHT22;10869;52.238;10.716;2023-05-10T06:14:29;13.70;99.30
21417;DHT22;10869;52.238;10.716;2023-05-10T06:16:55;13.80;99.70
21417;DHT22;10869;52.238;10.716;2023-05-10T06:19:20;13.90;99.90
21417;DHT22;10869;52.238;10.716;2023-05-10T06:21:46;14.00;99.90
21417;DHT22;10869;52.238;10.716;2023-05-10T06:27:35;14.20;99.90
21417;DHT22;10869;52.238;10.716;2023-05-10T06:33:23;14.50;99.90
21417;DHT22;10869;52.238;10.716;2023-05-10T06:39:10;14.70;99.90
21417;DHT22;10869;52.238;10.716;2023-05-10T06:44:59;14.90;99.80
21417;DHT22;10869;52.238;10.716;2023-05-10T06:47:25;15.10;99.50
21417;DHT22;10869;52.238;10.716;2023-05-10T06:53:12;15.40;99.20
21417;DHT22;10869;52.238;10.716;2023-05-10T06:55:39;15.40;99.20
21417;DHT22;10869;52.238;10.716;2023-05-10T07:01:26;15.60;98.80
21417;DHT22;10869;52.238;10.716;2023-05-10T07:03:52;15.70;99.20
21417;DHT22;10869;52.238;10.716;2023-05-10T07:09:40;15.60;98.40
21417;DHT22;10869;52.238;10.716;2023-05-10T07:15:28;15.50;98.50
21417;DHT22;10869;52.238;10.716;2023-05-10T07:21:16;15.50;99.30
21417;DHT22;10869;52.238;10.716;2023-05-10T07:27:03;15.80;99.50
21417;DHT22;10869;52.238;10.716;2023-05-10T07:32:51;15.90;99.90
21417;DHT22;10869;52.238;10.716;2023-05-10T07:35:30;16.00;99.90
21417;DHT22;10869;52.238;10.716;2023-05-10T07:41:21;15.90;99.90
21417;DHT22;10869;52.238;10.716;2023-05-10T07:43:49;15.90;99.90
21417;DHT22;10869;52.238;10.716;2023-05-10T07:46:15;15.90;99.90
21417;DHT22;10869;52.238;10.716;2023-05-10T07:48:41;16.00;99.90
21417;DHT22;10869;52.238;10.716;2023-05-10T07:54:29;16.20;99.90
21417;DHT22;10869;52.238;10.716;2023-05-10T07:56:55;16.30;99.90
21417;DHT22;10869;52.238;10.716;2023-05-10T07:59:20;16.20;99.90
21417;DHT22;10869;52.238;10.716;2023-05-10T08:01:46;16.20;99.90
21417;DHT22;10869;52.238;10.716;2023-05-10T08:04:12;16.10;99.90
21417;DHT22;10869;52.238;10.716;2023-05-10T08:10:00;16.10;99.90
21417;DHT22;10869;52.238;10.716;2023-05-10T08:12:26;16.00;99.90
21417;DHT22;10869;52.238;10.716;2023-05-10T08:18:14;16.00;99.90
21417;DHT22;10869;52.238;10.716;2023-05-10T08:20:40;16.00;99.90
21417;DHT22;10869;52.238;10.716;2023-05-10T08:23:05;16.10;99.90
21417;DHT22;10869;52.238;10.716;2023-05-10T08:25:31;16.20;99.90
21417;DHT22;10869;52.238;10.716;2023-05-10T08:27:57;16.20;99.90
21417;DHT22;10869;52.238;10.716;2023-05-10T08:33:45;16.00;99.90
21417;DHT22;10869;52.238;10.716;2023-05-10T08:39:36;15.60;99.90
21417;DHT22;10869;52.238;10.716;2023-05-10T08:45:25;15.00;99.90
21417;DHT22;10869;52.238;10.716;2023-05-10T08:47:53;14.80;99.90
21417;DHT22;10869;52.238;10.716;2023-05-10T08:50:20;14.70;99.90
21417;DHT22;10869;52.238;10.716;2023-05-10T08:52:48;14.60;99.90
21417;DHT22;10869;52.238;10.716;2023-05-10T08:55:15;14.60;99.90
21417;DHT22;10869;52.238;10.716;2023-05-10T08:57:41;14.60;99.90
21417;DHT22;10869;52.238;10.716;2023-05-10T09:00:08;14.60;99.90
21417;DHT22;10869;52.238;10.716;2023-05-10T09:05:56;14.60;99.90
21417;DHT22;10869;52.238;10.716;2023-05-10T09:08:23;14.70;99.90
21417;DHT22;10869;52.238;10.716;2023-05-10T09:10:53;14.80;99.90
21417;DHT22;10869;52.238;10.716;2023-05-10T09:13:21;14.80;99.90
21417;DHT22;10869;52.238;10.716;2023-05-10T09:15:47;14.90;99.90
21417;DHT22;10869;52.238;10.716;2023-05-10T09:18:13;15.00;99.90
21417;DHT22;10869;52.238;10.716;2023-05-10T09:20:39;15.10;99.90
21417;DHT22;10869;52.238;10.716;2023-05-10T09:23:05;15.20;99.90
21417;DHT22;10869;52.238;10.716;2023-05-10T09:25:32;15.30;99.90
21417;DHT22;10869;52.238;10.716;2023-05-10T09:28:00;15.30;99.90
21417;DHT22;10869;52.238;10.716;2023-05-10T09:30:29;15.20;99.90
21417;DHT22;10869;52.238;10.716;2023-05-10T09:32:56;15.30;99.90
21417;DHT22;10869;52.238;10.716;2023-05-10T09:35:24;15.30;99.90
21417;DHT22;10869;52.238;10.716;2023-05-10T09:37:51;15.30;99.90
21417;DHT22;10869;52.238;10.716;2023-05-10T09:40:26;15.30;99.90
21417;DHT22;10869;52.238;10.716;2023-05-10T09:43:00;15.40;99.90
21417;DHT22;10869;52.238;10.716;2023-05-10T09:45:31;15.40;99.90
21417;DHT22;10869;52.238;10.716;2023-05-10T09:47:58;15.50;99.90
21417;DHT22;10869;52.238;10.716;2023-05-10T09:50:25;15.50;99.90
21417;DHT22;10869;52.238;10.716;2023-05-10T09:55:18;15.30;99.90
21417;DHT22;10869;52.238;10.716;2023-05-10T09:57:46;15.20;99.90
21417;DHT22;10869;52.238;10.716;2023-05-10T10:00:19;15.00;99.90
21417;DHT22;10869;52.238;10.716;2023-05-10T10:02:58;15.00;99.90
21417;DHT22;10869;52.238;10.716;2023-05-10T10:05:31;15.00;99.90
21417;DHT22;10869;52.238;10.716;2023-05-10T10:07:57;15.10;99.90
21417;DHT22;10869;52.238;10.716;2023-05-10T10:13:45;15.00;99.90
21417;DHT22;10869;52.238;10.716;2023-05-10T10:16:12;14.90;99.90
21417;DHT22;10869;52.238;10.716;2023-05-10T10:18:38;14.90;99.90
21417;DHT22;10869;52.238;10.716;2023-05-10T10:24:33;14.90;99.90
21417;DHT22;10869;52.238;10.716;2023-05-10T10:27:32;14.80;99.90
21417;DHT22;10869;52.238;10.716;2023-05-10T10:35:23;14.70;99.90
21417;DHT22;10869;52.238;10.716;2023-05-10T10:41:38;15.10;99.90
21417;DHT22;10869;52.238;10.716;2023-05-10T10:44:25;15.20;99.90
21417;DHT22;10869;52.238;10.716;2023-05-10T10:47:06;15.20;99.90
21417;DHT22;10869;52.238;10.716;2023-05-10T10:49:38;15.20;99.90
21417;DHT22;10869;52.238;10.716;2023-05-10T10:55:18;15.10;99.90
21417;DHT22;10869;52.238;10.716;2023-05-10T10:57:45;15.00;99.90
21417;DHT22;10869;52.238;10.716;2023-05-10T11:00:38;14.90;99.90
21417;DHT22;10869;52.238;10.716;2023-05-10T11:03:13;14.80;99.90
21417;DHT22;10869;52.238;10.716;2023-05-10T11:05:43;14.80;99.90
21417;DHT22;10869;52.238;10.716;2023-05-10T11:08:19;14.70;99.90
21417;DHT22;10869;52.238;10.716;2023-05-10T11:19:01;15.20;99.90
21417;DHT22;10869;52.238;10.716;2023-05-10T11:21:31;15.30;99.90
21417;DHT22;10869;52.238;10.716;2023-05-10T11:23:59;15.30;99.90
21417;DHT22;10869;52.238;10.716;2023-05-10T11:26:33;15.20;99.90
21417;DHT22;10869;52.238;10.716;2023-05-10T11:28:59;15.20;99.90
21417;DHT22;10869;52.238;10.716;2023-05-10T11:31:27;14.90;99.90
21417;DHT22;10869;52.238;10.716;2023-05-10T11:33:56;14.80;99.90
21417;DHT22;10869;52.238;10.716;2023-05-10T11:39:46;14.90;99.90
21417;DHT22;10869;52.238;10.716;2023-05-10T11:45:37;15.00;99.90
21417;DHT22;10869;52.238;10.716;2023-05-10T11:48:02;15.00;99.90
21417;DHT22;10869;52.238;10.716;2023-05-10T11:50:28;15.10;99.90
21417;DHT22;10869;52.238;10.716;2023-05-10T11:52:57;15.10;99.90
21417;DHT22;10869;52.238;10.716;2023-05-10T11:55:24;15.20;99.90
21417;DHT22;10869;52.238;10.716;2023-05-10T11:57:54;15.20;99.90
21417;DHT22;10869;52.238;10.716;2023-05-10T12:00:20;15.30;99.90
21417;DHT22;10869;52.238;10.716;2023-05-10T12:02:47;15.40;99.90
21417;DHT22;10869;52.238;10.716;2023-05-10T12:05:13;15.50;99.90
21417;DHT22;10869;52.238;10.716;2023-05-10T12:07:39;15.60;99.90
21417;DHT22;10869;52.238;10.716;2023-05-10T12:10:10;15.70;99.90
21417;DHT22;10869;52.238;10.716;2023-05-10T12:12:38;15.80;99.90
21417;DHT22;10869;52.238;10.716;2023-05-10T12:15:05;15.90;99.90
21417;DHT22;10869;52.238;10.716;2023-05-10T12:17:32;16.20;99.90
21417;DHT22;10869;52.238;10.716;2023-05-10T12:20:27;16.40;99.90
21417;DHT22;10869;52.238;10.716;2023-05-10T12:22:55;16.50;99.90
21417;DHT22;10869;52.238;10.716;2023-05-10T12:25:23;16.60;99.90
21417;DHT22;10869;52.238;10.716;2023-05-10T12:27:54;16.60;99.90
21417;DHT22;10869;52.238;10.716;2023-05-10T12:30:25;16.50;99.90
21417;DHT22;10869;52.238;10.716;2023-05-10T12:32:52;16.60;99.90
21417;DHT22;10869;52.238;10.716;2023-05-10T12:35:18;16.60;99.90
21417;DHT22;10869;52.238;10.716;2023-05-10T12:37:47;16.70;99.90
21417;DHT22;10869;52.238;10.716;2023-05-10T12:40:14;16.80;99.90
21417;DHT22;10869;52.238;10.716;2023-05-10T12:42:40;16.90;99.90
21417;DHT22;10869;52.238;10.716;2023-05-10T12:45:06;17.10;99.90
21417;DHT22;10869;52.238;10.716;2023-05-10T12:47:33;17.20;99.90
21417;DHT22;10869;52.238;10.716;2023-05-10T12:50:00;17.40;99.90
21417;DHT22;10869;52.238;10.716;2023-05-10T12:52:26;17.60;99.90
21417;DHT22;10869;52.238;10.716;2023-05-10T12:54:53;17.70;99.90
21417;DHT22;10869;52.238;10.716;2023-05-10T12:57:20;17.90;99.90
21417;DHT22;10869;52.238;10.716;2023-05-10T13:03:08;18.10;99.90
21417;DHT22;10869;52.238;10.716;2023-05-10T13:05:34;18.20;99.90
21417;DHT22;10869;52.238;10.716;2023-05-10T13:07:59;18.20;99.90
21417;DHT22;10869;52.238;10.716;2023-05-10T13:10:25;18.10;99.90
21417;DHT22;10869;52.238;10.716;2023-05-10T13:12:51;18.00;99.90
21417;DHT22;10869;52.238;10.716;2023-05-10T13:15:17;18.00;99.90
21417;DHT22;10869;52.238;10.716;2023-05-10T13:17:43;18.20;99.90
21417;DHT22;10869;52.238;10.716;2023-05-10T13:20:11;18.30;99.90
21417;DHT22;10869;52.238;10.716;2023-05-10T13:22:36;18.40;99.90
21417;DHT22;10869;52.238;10.716;2023-05-10T13:25:02;18.50;99.90
21417;DHT22;10869;52.238;10.716;2023-05-10T13:27:28;18.80;99.90
21417;DHT22;10869;52.238;10.716;2023-05-10T13:29:54;18.90;99.90
21417;DHT22;10869;52.238;10.716;2023-05-10T13:32:20;18.90;99.90
21417;DHT22;10869;52.238;10.716;2023-05-10T13:34:46;19.00;99.90
21417;DHT22;10869;52.238;10.716;2023-05-10T13:37:12;18.90;99.90
21417;DHT22;10869;52.238;10.716;2023-05-10T13:39:38;18.50;99.90
21417;DHT22;10869;52.238;10.716;2023-05-10T13:42:04;18.40;99.90
21417;DHT22;10869;52.238;10.716;2023-05-10T13:47:52;18.80;99.90
21417;DHT22;10869;52.238;10.716;2023-05-10T13:50:18;19.00;99.90
21417;DHT22;10869;52.238;10.716;2023-05-10T13:52:43;19.00;99.90
21417;DHT22;10869;52.238;10.716;2023-05-10T13:55:09;19.00;99.90
21417;DHT22;10869;52.238;10.716;2023-05-10T13:57:37;19.00;99.90
21417;DHT22;10869;52.238;10.716;2023-05-10T14:00:03;19.10;99.90
21417;DHT22;10869;52.238;10.716;2023-05-10T14:02:30;19.10;99.90
21417;DHT22;10869;52.238;10.716;2023-05-10T14:04:56;19.20;99.90
21417;DHT22;10869;52.238;10.716;2023-05-10T14:07:22;19.10;99.90
21417;DHT22;10869;52.238;10.716;2023-05-10T14:09:47;19.00;99.90
21417;DHT22;10869;52.238;10.716;2023-05-10T14:15:35;18.90;99.90
21417;DHT22;10869;52.238;10.716;2023-05-10T14:18:01;18.70;99.90
21417;DHT22;10869;52.238;10.716;2023-05-10T14:20:27;18.60;99.90
21417;DHT22;10869;52.238;10.716;2023-05-10T14:22:52;18.50;99.90
21417;DHT22;10869;52.238;10.716;2023-05-10T14:25:18;18.40;99.90
21417;DHT22;10869;52.238;10.716;2023-05-10T14:27:44;18.30;99.90
21417;DHT22;10869;52.238;10.716;2023-05-10T14:30:10;18.10;99.90
21417;DHT22;10869;52.238;10.716;2023-05-10T14:32:37;18.00;99.90
21417;DHT22;10869;52.238;10.716;2023-05-10T14:35:03;18.00;99.90
21417;DHT22;10869;52.238;10.716;2023-05-10T14:37:29;17.90;99.90
21417;DHT22;10869;52.238;10.716;2023-05-10T14:39:55;17.90;99.90
21417;DHT22;10869;52.238;10.716;2023-05-10T14:42:20;17.90;99.90
21417;DHT22;10869;52.238;10.716;2023-05-10T14:44:46;17.80;99.90
21417;DHT22;10869;52.238;10.716;2023-05-10T14:47:12;17.80;99.90
21417;DHT22;10869;52.238;10.716;2023-05-10T14:49:38;17.80;99.90
21417;DHT22;10869;52.238;10.716;2023-05-10T14:52:04;17.70;99.90
21417;DHT22;10869;52.238;10.716;2023-05-10T14:54:30;17.70;99.90
21417;DHT22;10869;52.238;10.716;2023-05-10T14:56:55;17.70;99.90
21417;DHT22;10869;52.238;10.716;2023-05-10T14:59:23;17.70;99.90
21417;DHT22;10869;52.238;10.716;2023-05-10T15:01:49;17.70;99.90
21417;DHT22;10869;52.238;10.716;2023-05-10T15:04:15;17.70;99.90
21417;DHT22;10869;52.238;10.716;2023-05-10T15:06:42;17.80;99.90
21417;DHT22;10869;52.238;10.716;2023-05-10T15:09:08;17.90;99.90
21417;DHT22;10869;52.238;10.716;2023-05-10T15:11:35;18.20;99.90
21417;DHT22;10869;52.238;10.716;2023-05-10T15:14:01;18.50;99.90
21417;DHT22;10869;52.238;10.716;2023-05-10T15:16:27;18.60;99.90
21417;DHT22;10869;52.238;10.716;2023-05-10T15:22:15;18.80;99.90
21417;DHT22;10869;52.238;10.716;2023-05-10T15:24:40;19.00;99.90
21417;DHT22;10869;52.238;10.716;2023-05-10T15:27:06;19.00;99.90
21417;DHT22;10869;52.238;10.716;2023-05-10T15:29:32;18.80;99.90
21417;DHT22;10869;52.238;10.716;2023-05-10T15:31:59;18.70;99.90
21417;DHT22;10869;52.238;10.716;2023-05-10T15:34:27;18.60;99.90
21417;DHT22;10869;52.238;10.716;2023-05-10T15:36:53;18.50;99.90
21417;DHT22;10869;52.238;10.716;2023-05-10T15:39:19;18.40;99.90
21417;DHT22;10869;52.238;10.716;2023-05-10T15:41:44;18.40;99.90
21417;DHT22;10869;52.238;10.716;2023-05-10T15:44:10;18.30;99.90
21417;DHT22;10869;52.238;10.716;2023-05-10T15:46:36;18.40;99.90
21417;DHT22;10869;52.238;10.716;2023-05-10T15:49:03;18.40;99.90
21417;DHT22;10869;52.238;10.716;2023-05-10T15:51:29;18.40;99.90
21417;DHT22;10869;52.238;10.716;2023-05-10T15:53:55;18.30;99.90
21417;DHT22;10869;52.238;10.716;2023-05-10T15:56:21;18.30;99.90
21417;DHT22;10869;52.238;10.716;2023-05-10T15:58:47;18.20;99.90
21417;DHT22;10869;52.238;10.716;2023-05-10T16:01:13;18.20;99.90
21417;DHT22;10869;52.238;10.716;2023-05-10T16:03:39;18.10;99.90
21417;DHT22;10869;52.238;10.716;2023-05-10T16:06:05;18.10;99.90
21417;DHT22;10869;52.238;10.716;2023-05-10T16:08:31;18.10;99.90
21417;DHT22;10869;52.238;10.716;2023-05-10T16:10:59;18.10;99.90
21417;DHT22;10869;52.238;10.716;2023-05-10T16:13:25;18.10;99.90
21417;DHT22;10869;52.238;10.716;2023-05-10T16:15:52;18.10;99.90
21417;DHT22;10869;52.238;10.716;2023-05-10T16:18:18;18.10;99.90
21417;DHT22;10869;52.238;10.716;2023-05-10T16:20:44;18.20;99.90
21417;DHT22;10869;52.238;10.716;2023-05-10T16:23:10;18.20;99.90
21417;DHT22;10869;52.238;10.716;2023-05-10T16:25:36;18.20;99.90
21417;DHT22;10869;52.238;10.716;2023-05-10T16:28:02;18.20;99.90
21417;DHT22;10869;52.238;10.716;2023-05-10T16:30:28;18.20;99.90
21417;DHT22;10869;52.238;10.716;2023-05-10T16:32:59;18.00;99.90
21417;DHT22;10869;52.238;10.716;2023-05-10T16:35:25;17.90;99.90
21417;DHT22;10869;52.238;10.716;2023-05-10T16:37:52;17.70;99.90
21417;DHT22;10869;52.238;10.716;2023-05-10T16:40:18;17.70;99.90
21417;DHT22;10869;52.238;10.716;2023-05-10T16:42:43;17.70;99.90
21417;DHT22;10869;52.238;10.716;2023-05-10T16:45:09;17.70;99.90
21417;DHT22;10869;52.238;10.716;2023-05-10T16:47:36;17.70;99.90
21417;DHT22;10869;52.238;10.716;2023-05-10T16:50:04;17.70;99.90
21417;DHT22;10869;52.238;10.716;2023-05-10T16:52:31;17.60;99.90
21417;DHT22;10869;52.238;10.716;2023-05-10T16:54:57;17.60;99.90
21417;DHT22;10869;52.238;10.716;2023-05-10T16:57:23;17.60;99.90
21417;DHT22;10869;52.238;10.716;2023-05-10T16:59:49;17.50;99.90
21417;DHT22;10869;52.238;10.716;2023-05-10T17:02:18;17.50;99.90
21417;DHT22;10869;52.238;10.716;2023-05-10T17:04:44;17.50;99.90
21417;DHT22;10869;52.238;10.716;2023-05-10T17:07:10;17.40;99.90
21417;DHT22;10869;52.238;10.716;2023-05-10T17:09:37;17.30;99.90
21417;DHT22;10869;52.238;10.716;2023-05-10T17:16:03;17.20;99.90
21417;DHT22;10869;52.238;10.716;2023-05-10T17:18:33;17.00;99.90
21417;DHT22;10869;52.238;10.716;2023-05-10T17:20:58;16.90;99.90
21417;DHT22;10869;52.238;10.716;2023-05-10T17:23:24;16.80;99.90
21417;DHT22;10869;52.238;10.716;2023-05-10T17:25:50;16.80;99.90
21417;DHT22;10869;52.238;10.716;2023-05-10T17:28:16;16.80;99.90
21417;DHT22;10869;52.238;10.716;2023-05-10T17:30:41;16.70;99.90
21417;DHT22;10869;52.238;10.716;2023-05-10T17:33:07;16.60;99.90
21417;DHT22;10869;52.238;10.716;2023-05-10T17:35:33;16.60;99.90
21417;DHT22;10869;52.238;10.716;2023-05-10T17:37:58;16.50;99.90
21417;DHT22;10869;52.238;10.716;2023-05-10T17:40:24;16.50;99.90
21417;DHT22;10869;52.238;10.716;2023-05-10T17:42:50;16.40;99.90
21417;DHT22;10869;52.238;10.716;2023-05-10T17:45:16;16.30;99.90
21417;DHT22;10869;52.238;10.716;2023-05-10T17:47:42;16.30;99.90
21417;DHT22;10869;52.238;10.716;2023-05-10T17:50:08;16.20;99.90
21417;DHT22;10869;52.238;10.716;2023-05-10T17:52:34;16.10;99.90
21417;DHT22;10869;52.238;10.716;2023-05-10T17:55:00;16.00;99.90
21417;DHT22;10869;52.238;10.716;2023-05-10T18:00:48;15.90;99.90
21417;DHT22;10869;52.238;10.716;2023-05-10T18:03:14;15.80;99.90
21417;DHT22;10869;52.238;10.716;2023-05-10T18:09:03;15.70;99.90
21417;DHT22;10869;52.238;10.716;2023-05-10T18:14:51;15.50;99.90
21417;DHT22;10869;52.238;10.716;2023-05-10T18:17:17;15.40;99.90
21417;DHT22;10869;52.238;10.716;2023-05-10T18:19:43;15.30;99.90
21417;DHT22;10869;52.238;10.716;2023-05-10T18:22:08;15.30;99.90
21417;DHT22;10869;52.238;10.716;2023-05-10T18:24:34;15.20;99.90
21417;DHT22;10869;52.238;10.716;2023-05-10T18:30:22;15.10;99.90
21417;DHT22;10869;52.238;10.716;2023-05-10T18:32:47;15.00;99.90
21417;DHT22;10869;52.238;10.716;2023-05-10T18:35:13;15.00;99.90
21417;DHT22;10869;52.238;10.716;2023-05-10T18:41:02;14.90;99.90
21417;DHT22;10869;52.238;10.716;2023-05-10T18:43:28;14.80;99.90
21417;DHT22;10869;52.238;10.716;2023-05-10T18:49:16;14.80;99.90
21417;DHT22;10869;52.238;10.716;2023-05-10T18:51:49;14.70;99.90
21417;DHT22;10869;52.238;10.716;2023-05-10T18:54:14;14.60;99.90
21417;DHT22;10869;52.238;10.716;2023-05-10T18:56:40;14.50;99.90
21417;DHT22;10869;52.238;10.716;2023-05-10T18:59:10;14.40;99.90
21417;DHT22;10869;52.238;10.716;2023-05-10T19:04:58;14.20;99.90
21417;DHT22;10869;52.238;10.716;2023-05-10T19:07:23;14.10;99.90
21417;DHT22;10869;52.238;10.716;2023-05-10T19:09:49;14.10;99.90
21417;DHT22;10869;52.238;10.716;2023-05-10T19:15:37;14.10;99.90
21417;DHT22;10869;52.238;10.716;2023-05-10T19:18:03;14.00;99.90
21417;DHT22;10869;52.238;10.716;2023-05-10T19:23:51;13.90;99.90
21417;DHT22;10869;52.238;10.716;2023-05-10T19:26:18;13.80;99.90
21417;DHT22;10869;52.238;10.716;2023-05-10T19:28:44;13.70;99.90
21417;DHT22;10869;52.238;10.716;2023-05-10T19:34:32;13.70;99.90
21417;DHT22;10869;52.238;10.716;2023-05-10T19:36:58;13.60;99.90
21417;DHT22;10869;52.238;10.716;2023-05-10T19:39:23;13.50;99.90
21417;DHT22;10869;52.238;10.716;2023-05-10T19:41:49;13.40;99.90
21417;DHT22;10869;52.238;10.716;2023-05-10T19:47:37;13.30;99.90
21417;DHT22;10869;52.238;10.716;2023-05-10T19:50:03;13.20;99.90
21417;DHT22;10869;52.238;10.716;2023-05-10T19:52:30;13.10;99.90
21417;DHT22;10869;52.238;10.716;2023-05-10T19:54:56;13.10;99.90
21417;DHT22;10869;52.238;10.716;2023-05-10T19:57:22;13.10;99.90
21417;DHT22;10869;52.238;10.716;2023-05-10T19:59:47;13.10;99.90
21417;DHT22;10869;52.238;10.716;2023-05-10T20:02:13;13.10;99.90
21417;DHT22;10869;52.238;10.716;2023-05-10T20:04:39;13.10;99.90
21417;DHT22;10869;52.238;10.716;2023-05-10T20:07:05;13.20;99.90
21417;DHT22;10869;52.238;10.716;2023-05-10T20:09:31;13.20;99.90
21417;DHT22;10869;52.238;10.716;2023-05-10T20:11:57;13.20;99.90
21417;DHT22;10869;52.238;10.716;2023-05-10T20:14:24;13.30;99.90
21417;DHT22;10869;52.238;10.716;2023-05-10T20:16:51;13.30;99.90
21417;DHT22;10869;52.238;10.716;2023-05-10T20:19:16;13.30;99.90
21417;DHT22;10869;52.238;10.716;2023-05-10T20:21:51;13.30;99.90
21417;DHT22;10869;52.238;10.716;2023-05-10T20:27:42;13.20;99.90
21417;DHT22;10869;52.238;10.716;2023-05-10T20:33:33;13.10;99.90
21417;DHT22;10869;52.238;10.716;2023-05-10T20:36:05;13.00;99.90
21417;DHT22;10869;52.238;10.716;2023-05-10T20:38:34;12.90;99.90
21417;DHT22;10869;52.238;10.716;2023-05-10T20:41:03;12.90;99.90
21417;DHT22;10869;52.238;10.716;2023-05-10T20:43:29;12.80;99.90
21417;DHT22;10869;52.238;10.716;2023-05-10T20:45:56;12.80;99.90
21417;DHT22;10869;52.238;10.716;2023-05-10T20:48:22;12.80;99.90
21417;DHT22;10869;52.238;10.716;2023-05-10T20:50:48;12.80;99.90
21417;DHT22;10869;52.238;10.716;2023-05-10T20:53:14;12.80;99.90
21417;DHT22;10869;52.238;10.716;2023-05-10T20:55:44;12.80;99.90
21417;DHT22;10869;52.238;10.716;2023-05-10T20:58:10;12.80;99.90
21417;DHT22;10869;52.238;10.716;2023-05-10T21:00:36;12.80;99.90
21417;DHT22;10869;52.238;10.716;2023-05-10T21:03:02;12.80;99.90
21417;DHT22;10869;52.238;10.716;2023-05-10T21:05:28;12.80;99.90
21417;DHT22;10869;52.238;10.716;2023-05-10T21:07:54;12.80;99.90
21417;DHT22;10869;52.238;10.716;2023-05-10T21:10:20;12.80;99.90
21417;DHT22;10869;52.238;10.716;2023-05-10T21:12:46;12.80;99.90
21417;DHT22;10869;52.238;10.716;2023-05-10T21:15:12;12.80;99.90
21417;DHT22;10869;52.238;10.716;2023-05-10T21:17:38;12.80;99.90
21417;DHT22;10869;52.238;10.716;2023-05-10T21:20:04;12.90;99.90
21417;DHT22;10869;52.238;10.716;2023-05-10T21:22:30;12.90;99.90
21417;DHT22;10869;52.238;10.716;2023-05-10T21:24:59;12.90;99.90
21417;DHT22;10869;52.238;10.716;2023-05-10T21:27:25;12.90;99.90
21417;DHT22;10869;52.238;10.716;2023-05-10T21:29:51;13.00;99.90
21417;DHT22;10869;52.238;10.716;2023-05-10T21:32:17;13.00;99.90
21417;DHT22;10869;52.238;10.716;2023-05-10T21:34:43;13.00;99.90
21417;DHT22;10869;52.238;10.716;2023-05-10T21:37:09;13.00;99.90
21417;DHT22;10869;52.238;10.716;2023-05-10T21:39:35;13.00;99.90
21417;DHT22;10869;52.238;10.716;2023-05-10T21:42:01;13.00;99.90
21417;DHT22;10869;52.238;10.716;2023-05-10T21:44:28;13.00;99.90
21417;DHT22;10869;52.238;10.716;2023-05-10T21:46:54;13.00;99.90
21417;DHT22;10869;52.238;10.716;2023-05-10T21:49:19;13.00;99.90
21417;DHT22;10869;52.238;10.716;2023-05-10T21:51:45;13.00;99.90
21417;DHT22;10869;52.238;10.716;2023-05-10T21:54:11;13.00;99.90
21417;DHT22;10869;52.238;10.716;2023-05-10T21:56:37;13.00;99.90
21417;DHT22;10869;52.238;10.716;2023-05-10T21:59:03;13.00;99.90
21417;DHT22;10869;52.238;10.716;2023-05-10T22:01:29;13.00;99.90
21417;DHT22;10869;52.238;10.716;2023-05-10T22:03:55;12.90;99.90
21417;DHT22;10869;52.238;10.716;2023-05-10T22:06:21;12.90;99.90
21417;DHT22;10869;52.238;10.716;2023-05-10T22:08:46;12.90;99.90
21417;DHT22;10869;52.238;10.716;2023-05-10T22:11:13;12.90;99.90
21417;DHT22;10869;52.238;10.716;2023-05-10T22:13:38;12.90;99.90
21417;DHT22;10869;52.238;10.716;2023-05-10T22:16:04;12.80;99.90
21417;DHT22;10869;52.238;10.716;2023-05-10T22:18:31;12.90;99.90
21417;DHT22;10869;52.238;10.716;2023-05-10T22:20:57;12.80;99.90
21417;DHT22;10869;52.238;10.716;2023-05-10T22:23:23;12.80;99.90
21417;DHT22;10869;52.238;10.716;2023-05-10T22:25:49;12.80;99.90
21417;DHT22;10869;52.238;10.716;2023-05-10T22:28:15;12.70;99.90
21417;DHT22;10869;52.238;10.716;2023-05-10T22:30:42;12.70;99.90
21417;DHT22;10869;52.238;10.716;2023-05-10T22:33:08;12.70;99.90
21417;DHT22;10869;52.238;10.716;2023-05-10T22:35:34;12.60;99.90
21417;DHT22;10869;52.238;10.716;2023-05-10T22:38:00;12.60;99.90
21417;DHT22;10869;52.238;10.716;2023-05-10T22:40:26;12.50;99.90
21417;DHT22;10869;52.238;10.716;2023-05-10T22:42:52;12.50;99.90
21417;DHT22;10869;52.238;10.716;2023-05-10T22:45:17;12.40;99.90
21417;DHT22;10869;52.238;10.716;2023-05-10T22:47:44;12.30;99.90
21417;DHT22;10869;52.238;10.716;2023-05-10T22:50:10;12.20;99.90
21417;DHT22;10869;52.238;10.716;2023-05-10T22:52:37;12.10;99.90
21417;DHT22;10869;52.238;10.716;2023-05-10T22:55:04;12.10;99.90
21417;DHT22;10869;52.238;10.716;2023-05-10T22:57:31;12.00;99.90
21417;DHT22;10869;52.238;10.716;2023-05-10T22:59:57;12.00;99.90
